createdAt,value
2022-11-29T00:01:15.167Z,1.38
2022-11-29T00:03:41.704Z,2.28
2022-11-29T00:06:14.165Z,1.60
2022-11-29T00:08:41.446Z,1.45
2022-11-29T00:11:12.880Z,1.00
2022-11-29T00:13:39.521Z,0.70
2022-11-29T00:16:12.056Z,2.22
2022-11-29T00:18:38.629Z,2.63
2022-11-29T00:21:06.988Z,0.50
2022-11-29T00:23:34.212Z,1.52
2022-11-29T00:26:08.489Z,3.50
2022-11-29T00:28:36.568Z,1.00
2022-11-29T00:31:17.971Z,2.45
2022-11-29T00:33:44.601Z,4.70
2022-11-29T00:36:12.257Z,1.52
2022-11-29T00:38:39.534Z,1.10
2022-11-29T00:41:06.895Z,1.48
2022-11-29T00:43:33.799Z,2.30
2022-11-29T00:46:00.978Z,2.33
2022-11-29T00:48:27.758Z,2.38
2022-11-29T00:50:54.472Z,2.92
2022-11-29T00:53:20.997Z,1.75
2022-11-29T00:55:48.764Z,2.55
2022-11-29T00:58:15.312Z,1.38
2022-11-29T01:00:41.892Z,3.03
2022-11-29T01:03:08.456Z,1.00
2022-11-29T01:05:34.986Z,3.00
2022-11-29T01:08:01.761Z,1.63
2022-11-29T01:10:28.271Z,2.30
2022-11-29T01:12:55.449Z,0.70
2022-11-29T01:15:22.294Z,1.63
2022-11-29T01:17:50.315Z,0.65
2022-11-29T01:20:16.943Z,1.77
2022-11-29T01:22:43.667Z,0.98
2022-11-29T01:25:12.442Z,1.20
2022-11-29T01:27:39.311Z,1.23
2022-11-29T01:30:07.524Z,1.02
2022-11-29T01:32:34.538Z,1.70
2022-11-29T01:35:01.044Z,1.42
2022-11-29T01:37:30.816Z,0.50
2022-11-29T01:39:57.356Z,1.77
2022-11-29T01:42:24.288Z,1.50
2022-11-29T01:45:01.749Z,0.57
2022-11-29T01:47:28.879Z,1.52
2022-11-29T01:49:55.430Z,1.35
2022-11-29T01:52:28.287Z,1.35
2022-11-29T01:54:58.424Z,0.95
2022-11-29T01:57:26.263Z,1.10
2022-11-29T01:59:58.140Z,1.55
2022-11-29T02:02:36.629Z,2.03
2022-11-29T02:05:04.634Z,0.63
2022-11-29T02:07:31.908Z,1.85
2022-11-29T02:09:58.639Z,1.27
2022-11-29T02:12:36.912Z,2.00
2022-11-29T02:15:28.249Z,1.33
2022-11-29T02:18:20.027Z,1.05
2022-11-29T02:20:55.453Z,2.15
2022-11-29T02:24:02.093Z,0.75
2022-11-29T02:26:47.329Z,1.95
2022-11-29T02:29:48.061Z,1.17
2022-11-29T02:32:23.549Z,1.23
2022-11-29T02:34:53.020Z,2.50
2022-11-29T02:37:40.798Z,0.98
2022-11-29T02:40:49.564Z,1.67
2022-11-29T02:43:43.992Z,2.40
2022-11-29T02:46:16.588Z,2.13
2022-11-29T02:49:00.677Z,1.85
2022-11-29T02:51:29.896Z,0.47
2022-11-29T02:54:23.839Z,2.60
2022-11-29T02:57:25.909Z,1.08
2022-11-29T02:59:59.872Z,0.73
2022-11-29T03:05:17.295Z,2.13
2022-11-29T03:08:06.093Z,1.27
2022-11-29T03:11:06.627Z,0.80
2022-11-29T03:14:03.751Z,1.65
2022-11-29T03:16:43.531Z,1.50
2022-11-29T03:19:28.076Z,1.73
2022-11-29T03:22:09.502Z,0.93
2022-11-29T03:24:50.057Z,1.60
2022-11-29T03:27:36.276Z,1.05
2022-11-29T03:30:07.184Z,1.80
2022-11-29T03:33:07.287Z,1.13
2022-11-29T03:35:46.827Z,3.25
2022-11-29T03:38:35.348Z,0.80
2022-11-29T03:41:17.964Z,1.27
2022-11-29T03:43:56.566Z,1.90
2022-11-29T03:46:41.933Z,1.30
2022-11-29T03:49:20.649Z,0.95
2022-11-29T03:52:04.853Z,0.88
2022-11-29T03:57:29.687Z,1.52
2022-11-29T04:00:12.926Z,1.45
2022-11-29T04:03:33.103Z,1.58
2022-11-29T04:06:28.804Z,1.08
2022-11-29T04:09:18.717Z,1.08
2022-11-29T04:11:58.905Z,0.88
2022-11-29T04:14:45.620Z,0.65
2022-11-29T04:17:34.096Z,2.00
2022-11-29T04:20:15.759Z,0.57
2022-11-29T04:22:51.521Z,0.77
2022-11-29T04:25:46.074Z,0.25
2022-11-29T04:31:13.551Z,0.80
2022-11-29T04:33:55.318Z,0.60
2022-11-29T04:36:43.817Z,1.45
2022-11-29T04:39:45.898Z,0.40
2022-11-29T04:42:40.000Z,1.75
2022-11-29T04:45:37.913Z,0.43
2022-11-29T04:48:32.248Z,1.23
2022-11-29T04:51:40.648Z,1.00
2022-11-29T04:54:27.897Z,0.40
2022-11-29T04:57:11.718Z,1.15
2022-11-29T04:59:59.590Z,0.55
2022-11-29T05:02:50.012Z,1.20
2022-11-29T05:05:35.503Z,0.30
2022-11-29T05:08:22.028Z,1.85
2022-11-29T05:10:59.717Z,0.38
2022-11-29T05:13:40.623Z,0.40
2022-11-29T05:16:32.966Z,0.30
2022-11-29T05:19:25.076Z,0.57
2022-11-29T05:22:13.673Z,0.40
2022-11-29T05:24:59.242Z,1.80
2022-11-29T05:27:37.808Z,0.90
2022-11-29T05:30:07.031Z,0.43
2022-11-29T05:32:45.518Z,0.40
2022-11-29T05:35:24.067Z,1.05
2022-11-29T05:37:57.005Z,0.52
2022-11-29T05:40:26.463Z,2.53
2022-11-29T05:43:47.733Z,0.63
2022-11-29T05:46:35.991Z,0.38
2022-11-29T05:49:22.183Z,0.90
2022-11-29T05:52:15.039Z,0.35
2022-11-29T05:54:52.973Z,0.13
2022-11-29T05:57:33.782Z,0.88
2022-11-29T06:00:03.065Z,0.50
2022-11-29T06:02:59.730Z,0.17
2022-11-29T06:05:47.430Z,0.45
2022-11-29T06:08:29.352Z,0.40
2022-11-29T06:11:33.949Z,0.25
2022-11-29T06:14:37.126Z,0.20
2022-11-29T06:17:15.925Z,0.40
2022-11-29T06:20:11.000Z,0.55
2022-11-29T06:22:50.371Z,0.30
2022-11-29T06:25:25.899Z,0.40
2022-11-29T06:27:59.071Z,0.30
2022-11-29T06:31:00.558Z,0.33
2022-11-29T06:33:38.382Z,0.63
2022-11-29T06:36:12.909Z,0.40
2022-11-29T06:38:39.695Z,0.15
2022-11-29T06:41:06.425Z,0.20
2022-11-29T06:43:33.629Z,0.22
2022-11-29T06:46:05.368Z,0.30
2022-11-29T06:48:42.987Z,0.10
2022-11-29T06:51:35.762Z,0.20
2022-11-29T06:54:23.748Z,0.10
2022-11-29T06:57:11.527Z,0.20
2022-11-29T07:00:06.435Z,0.35
2022-11-29T07:02:59.377Z,0.50
2022-11-29T07:05:31.484Z,0.63
2022-11-29T07:08:10.028Z,0.25
2022-11-29T07:10:38.516Z,0.50
2022-11-29T07:13:05.483Z,0.77
2022-11-29T07:15:32.456Z,0.82
2022-11-29T07:18:17.844Z,0.55
2022-11-29T07:20:47.309Z,0.20
2022-11-29T07:23:37.025Z,1.05
2022-11-29T07:26:32.178Z,0.32
2022-11-29T07:29:04.684Z,0.45
2022-11-29T07:31:53.660Z,0.30
2022-11-29T07:34:29.187Z,0.32
2022-11-29T07:37:10.931Z,0.32
2022-11-29T07:40:00.771Z,0.20
2022-11-29T07:42:35.699Z,0.40
2022-11-29T07:45:02.155Z,0.20
2022-11-29T07:47:34.084Z,1.90
2022-11-29T07:50:02.168Z,0.88
2022-11-29T07:52:28.793Z,0.30
2022-11-29T07:54:55.823Z,0.38
2022-11-29T07:57:22.617Z,0.40
2022-11-29T07:59:49.142Z,1.73
2022-11-29T08:02:27.118Z,0.30
2022-11-29T08:04:53.680Z,0.57
2022-11-29T08:07:20.254Z,0.30
2022-11-29T08:09:47.095Z,0.22
2022-11-29T08:12:13.843Z,0.45
2022-11-29T08:14:40.413Z,0.30
2022-11-29T08:17:07.043Z,0.15
2022-11-29T08:19:33.544Z,0.47
2022-11-29T08:22:00.313Z,0.68
2022-11-29T08:24:26.883Z,0.20
2022-11-29T08:26:53.497Z,0.63
2022-11-29T08:29:20.131Z,0.35
2022-11-29T08:31:53.084Z,0.10
2022-11-29T08:34:20.896Z,1.10
2022-11-29T08:36:47.417Z,0.73
2022-11-29T08:39:13.977Z,0.32
2022-11-29T08:41:40.508Z,0.65
2022-11-29T08:44:07.620Z,0.50
2022-11-29T08:46:53.297Z,0.47
2022-11-29T08:49:19.808Z,0.30
2022-11-29T08:51:46.481Z,0.30
2022-11-29T08:54:13.003Z,0.40
2022-11-29T08:59:26.189Z,0.28
2022-11-29T09:01:52.771Z,0.40
2022-11-29T09:04:19.347Z,0.60
2022-11-29T09:06:49.354Z,0.47
2022-11-29T09:09:16.342Z,1.27
2022-11-29T09:11:46.995Z,0.22
2022-11-29T09:14:16.955Z,0.52
2022-11-29T09:16:43.551Z,1.45
2022-11-29T09:19:10.555Z,0.40
2022-11-29T09:21:37.241Z,0.40
2022-11-29T09:24:06.373Z,0.57
2022-11-29T09:26:36.157Z,0.30
2022-11-29T09:29:04.930Z,0.45
2022-11-29T09:31:32.542Z,0.38
2022-11-29T09:33:59.393Z,0.40
2022-11-29T09:36:29.058Z,1.33
2022-11-29T09:38:57.180Z,1.02
2022-11-29T09:41:54.819Z,1.85
2022-11-29T09:44:44.799Z,1.33
2022-11-29T09:47:36.049Z,1.35
2022-11-29T09:50:35.142Z,0.40
2022-11-29T09:53:20.782Z,0.50
2022-11-29T09:55:59.426Z,1.15
2022-11-29T09:58:30.634Z,0.73
2022-11-29T10:01:01.586Z,0.60
2022-11-29T10:03:40.527Z,0.95
2022-11-29T10:06:16.052Z,0.30
2022-11-29T10:08:55.933Z,0.40
2022-11-29T10:11:43.473Z,0.47
2022-11-29T10:14:18.015Z,0.70
2022-11-29T10:16:52.292Z,0.30
2022-11-29T10:19:32.630Z,0.40
2022-11-29T10:22:05.057Z,0.40
2022-11-29T10:24:33.398Z,0.60
2022-11-29T10:27:00.177Z,2.13
2022-11-29T10:29:26.834Z,0.60
2022-11-29T10:31:56.626Z,0.40
2022-11-29T10:34:25.351Z,2.15
2022-11-29T10:36:59.620Z,0.63
2022-11-29T10:39:47.051Z,0.60
2022-11-29T10:42:41.329Z,0.95
2022-11-29T10:45:27.252Z,0.57
2022-11-29T10:47:57.886Z,0.25
2022-11-29T10:50:27.905Z,0.68
2022-11-29T10:53:04.740Z,1.45
2022-11-29T10:55:38.562Z,0.35
2022-11-29T10:58:13.056Z,2.83
2022-11-29T11:00:59.646Z,1.02
2022-11-29T11:03:32.328Z,0.35
2022-11-29T11:06:13.644Z,0.40
2022-11-29T11:08:50.033Z,1.05
2022-11-29T11:11:25.948Z,0.43
2022-11-29T11:14:04.992Z,0.60
2022-11-29T11:16:36.834Z,0.47
2022-11-29T11:19:33.235Z,0.95
2022-11-29T11:22:04.106Z,0.50
2022-11-29T11:24:42.481Z,0.30
2022-11-29T11:27:10.141Z,1.25
2022-11-29T11:29:43.553Z,0.40
2022-11-29T11:32:18.807Z,0.45
2022-11-29T11:35:00.516Z,0.32
2022-11-29T11:37:32.499Z,0.60
2022-11-29T11:40:17.748Z,0.55
2022-11-29T11:42:45.034Z,0.32
2022-11-29T11:45:11.504Z,0.30
2022-11-29T11:47:44.024Z,0.22
2022-11-29T11:50:44.890Z,1.15
2022-11-29T11:53:23.013Z,0.40
2022-11-29T11:56:01.292Z,0.10
2022-11-29T11:58:34.527Z,0.13
2022-11-29T12:01:25.076Z,0.38
2022-11-29T12:04:16.352Z,0.57
2022-11-29T12:07:03.070Z,0.20
2022-11-29T12:09:44.536Z,0.52
2022-11-29T12:12:25.619Z,0.30
2022-11-29T12:15:28.340Z,0.30
2022-11-29T12:18:05.658Z,0.22
2022-11-29T12:20:57.291Z,0.47
2022-11-29T12:23:54.379Z,0.20
2022-11-29T12:26:56.424Z,0.47
2022-11-29T12:29:19.974Z,0.22
2022-11-29T12:32:05.739Z,0.38
2022-11-29T12:34:52.416Z,0.15
2022-11-29T12:37:27.323Z,0.20
2022-11-29T12:40:05.416Z,0.30
2022-11-29T12:42:52.200Z,0.20
2022-11-29T12:45:34.287Z,0.50
2022-11-29T12:48:06.802Z,2.30
2022-11-29T12:50:39.639Z,0.40
2022-11-29T12:53:27.692Z,0.20
2022-11-29T12:56:07.060Z,0.20
2022-11-29T12:59:08.308Z,0.30
2022-11-29T13:01:53.172Z,0.70
2022-11-29T13:04:36.217Z,0.30
2022-11-29T13:07:21.159Z,0.10
2022-11-29T13:10:02.500Z,0.30
2022-11-29T13:12:39.739Z,0.30
2022-11-29T13:15:22.238Z,0.20
2022-11-29T13:17:54.826Z,0.73
2022-11-29T13:21:03.924Z,0.32
2022-11-29T13:24:07.517Z,1.73
2022-11-29T13:26:27.382Z,0.75
2022-11-29T13:28:54.441Z,0.40
2022-11-29T13:31:24.942Z,0.32
2022-11-29T13:34:16.950Z,0.30
2022-11-29T13:36:58.753Z,0.80
2022-11-29T13:39:35.427Z,0.40
2022-11-29T13:42:10.199Z,0.82
2022-11-29T13:44:57.718Z,0.30
2022-11-29T13:47:24.359Z,0.57
2022-11-29T13:50:02.661Z,0.30
2022-11-29T13:52:44.109Z,0.28
2022-11-29T13:55:11.317Z,0.20
2022-11-29T13:58:16.359Z,0.20
2022-11-29T14:00:44.135Z,0.30
2022-11-29T14:03:22.990Z,0.47
2022-11-29T14:06:04.217Z,0.32
2022-11-29T14:09:25.049Z,0.25
2022-11-29T14:11:48.802Z,0.20
2022-11-29T14:14:47.845Z,0.35
2022-11-29T14:17:35.628Z,0.10
2022-11-29T14:20:28.516Z,0.38
2022-11-29T14:23:04.920Z,2.55
2022-11-29T14:28:23.294Z,0.40
2022-11-29T14:30:50.908Z,0.40
2022-11-29T14:33:23.319Z,0.65
2022-11-29T14:36:00.203Z,0.38
2022-11-29T14:38:37.939Z,0.30
2022-11-29T14:41:26.034Z,0.82
2022-11-29T14:44:15.619Z,0.40
2022-11-29T14:46:42.846Z,0.32
2022-11-29T14:49:25.447Z,0.30
2022-11-29T14:52:13.875Z,0.45
2022-11-29T14:55:18.626Z,0.95
2022-11-29T14:57:48.316Z,1.38
2022-11-29T15:00:17.930Z,0.85
2022-11-29T15:02:49.172Z,0.32
2022-11-29T15:05:24.376Z,0.55
2022-11-29T15:08:14.051Z,1.67
2022-11-29T15:10:46.807Z,0.77
2022-11-29T15:13:23.116Z,1.58
2022-11-29T15:16:09.072Z,0.82
2022-11-29T15:18:38.881Z,1.48
2022-11-29T15:21:23.794Z,1.85
2022-11-29T15:24:10.538Z,0.98
2022-11-29T15:26:37.090Z,1.52
2022-11-29T15:29:19.405Z,1.42
2022-11-29T15:31:51.929Z,1.45
2022-11-29T15:34:38.257Z,1.25
2022-11-29T15:37:04.874Z,1.77
2022-11-29T15:39:34.654Z,1.92
2022-11-29T15:42:10.554Z,1.17
2022-11-29T15:44:37.508Z,2.03
2022-11-29T15:47:24.923Z,2.33
2022-11-29T15:49:53.055Z,1.40
2022-11-29T15:52:29.703Z,0.95
2022-11-29T15:55:02.173Z,1.63
2022-11-29T15:57:51.467Z,1.73
2022-11-29T16:00:23.006Z,1.88
2022-11-29T16:02:52.981Z,2.97
2022-11-29T16:05:37.234Z,1.60
2022-11-29T16:10:40.929Z,1.60
2022-11-29T16:13:40.212Z,3.03
2022-11-29T16:16:28.000Z,1.40
2022-11-29T16:18:54.621Z,2.08
2022-11-29T16:21:26.234Z,4.75
2022-11-29T16:23:53.472Z,1.60
2022-11-29T16:26:30.013Z,4.22
2022-11-29T16:28:58.093Z,2.17
2022-11-29T16:31:32.978Z,2.78
2022-11-29T16:34:13.579Z,2.00
2022-11-29T16:36:40.143Z,3.78
2022-11-29T16:39:16.928Z,2.70
2022-11-29T16:41:44.007Z,2.22
2022-11-29T16:44:46.867Z,3.47
2022-11-29T16:47:22.108Z,1.38
2022-11-29T16:50:12.685Z,2.13
2022-11-29T16:52:39.522Z,2.25
2022-11-29T16:55:06.341Z,5.40
2022-11-29T16:57:33.057Z,2.00
2022-11-29T16:59:59.621Z,2.00
2022-11-29T17:02:29.134Z,1.77
2022-11-29T17:04:56.955Z,2.70
2022-11-29T17:07:31.469Z,3.05
2022-11-29T17:09:58.904Z,4.35
2022-11-29T17:12:25.455Z,5.85
2022-11-29T17:14:52.014Z,1.63
2022-11-29T17:17:19.260Z,3.65
2022-11-29T17:19:45.795Z,2.30
2022-11-29T17:22:12.568Z,2.65
2022-11-29T17:24:42.310Z,4.93
2022-11-29T17:27:12.954Z,3.65
2022-11-29T17:29:39.547Z,1.85
2022-11-29T17:32:06.159Z,3.15
2022-11-29T17:34:33.351Z,3.92
2022-11-29T17:36:59.888Z,0.82
2022-11-29T17:39:26.450Z,2.70
2022-11-29T17:41:52.959Z,2.13
2022-11-29T17:44:19.513Z,5.95
2022-11-29T17:46:46.129Z,5.25
2022-11-29T17:49:12.677Z,2.45
2022-11-29T17:51:55.950Z,6.32
2022-11-29T17:54:22.763Z,5.18
2022-11-29T17:56:49.977Z,4.43
2022-11-29T17:59:16.631Z,3.65
2022-11-29T18:01:43.250Z,5.20
2022-11-29T18:04:09.878Z,2.22
2022-11-29T18:06:38.921Z,3.50
2022-11-29T18:09:07.583Z,4.43
2022-11-29T18:11:46.476Z,4.70
2022-11-29T18:14:20.023Z,4.32
2022-11-29T18:16:46.822Z,3.47
2022-11-29T18:19:18.845Z,1.67
2022-11-29T18:21:45.975Z,5.65
2022-11-29T18:24:12.642Z,6.00
2022-11-29T18:26:39.639Z,6.78
2022-11-29T18:29:06.749Z,3.03
2022-11-29T18:31:36.345Z,7.68
2022-11-29T18:34:09.726Z,2.17
2022-11-29T18:36:45.241Z,7.25
2022-11-29T18:39:14.940Z,4.90
2022-11-29T18:41:48.856Z,7.38
2022-11-29T18:46:44.847Z,4.40
2022-11-29T18:49:13.984Z,2.50
2022-11-29T18:51:45.487Z,4.35
2022-11-29T18:54:13.719Z,3.33
2022-11-29T18:56:40.725Z,4.88
2022-11-29T18:59:16.911Z,6.43
2022-11-29T19:01:45.706Z,8.65
2022-11-29T19:04:15.364Z,5.25
2022-11-29T19:06:42.688Z,7.22
2022-11-29T19:09:17.309Z,5.82
2022-11-29T19:11:43.852Z,3.05
2022-11-29T19:14:11.949Z,5.18
2022-11-29T19:16:43.596Z,4.95
2022-11-29T19:19:10.460Z,5.53
2022-11-29T19:21:39.559Z,7.95
2022-11-29T19:24:13.164Z,7.82
2022-11-29T19:26:40.478Z,6.57
2022-11-29T19:29:07.059Z,4.53
2022-11-29T19:31:33.626Z,4.00
2022-11-29T19:34:00.137Z,2.67
2022-11-29T19:36:31.101Z,3.15
2022-11-29T19:39:00.568Z,3.30
2022-11-29T19:41:30.325Z,2.67
2022-11-29T19:43:59.122Z,4.13
2022-11-29T19:46:28.102Z,8.10
2022-11-29T19:48:56.732Z,4.40
2022-11-29T19:51:24.168Z,5.82
2022-11-29T19:53:55.449Z,4.93
2022-11-29T19:56:22.834Z,3.40
2022-11-29T19:58:50.343Z,6.70
2022-11-29T20:01:22.383Z,9.13
2022-11-29T20:03:49.621Z,3.80
2022-11-29T20:06:16.728Z,5.50
2022-11-29T20:08:43.939Z,4.05
2022-11-29T20:11:12.909Z,5.82
2022-11-29T20:13:40.729Z,5.68
2022-11-29T20:16:10.687Z,2.45
2022-11-29T20:18:39.563Z,10.10
2022-11-29T20:21:11.419Z,10.48
2022-11-29T20:23:39.573Z,4.88
2022-11-29T20:26:08.069Z,4.25
2022-11-29T20:28:35.592Z,5.47
2022-11-29T20:31:06.551Z,6.22
2022-11-29T20:33:33.648Z,4.82
2022-11-29T20:36:37.813Z,5.28
2022-11-29T20:39:20.414Z,4.70
2022-11-29T20:42:09.483Z,5.38
2022-11-29T20:45:06.495Z,6.55
2022-11-29T20:47:44.880Z,8.25
2022-11-29T20:50:38.165Z,9.70
2022-11-29T20:53:11.932Z,6.05
2022-11-29T20:55:42.480Z,3.85
2022-11-29T20:58:12.963Z,5.93
2022-11-29T21:00:39.610Z,3.58
2022-11-29T21:03:06.167Z,7.57
2022-11-29T21:05:32.701Z,7.38
2022-11-29T21:07:59.302Z,4.25
2022-11-29T21:10:25.950Z,13.40
2022-11-29T21:12:52.777Z,4.93
2022-11-29T21:15:19.640Z,5.95
2022-11-29T21:17:46.470Z,5.97
2022-11-29T21:20:23.326Z,8.88
2022-11-29T21:23:18.204Z,6.53
2022-11-29T21:26:11.993Z,4.25
2022-11-29T21:28:47.115Z,5.05
2022-11-29T21:31:16.466Z,8.23
2022-11-29T21:33:43.269Z,3.50
2022-11-29T21:36:09.996Z,9.90
2022-11-29T21:38:36.637Z,6.60
2022-11-29T21:41:03.158Z,7.13
2022-11-29T21:43:58.026Z,5.88
2022-11-29T21:46:16.969Z,4.60
2022-11-29T21:48:44.353Z,3.22
2022-11-29T21:51:11.843Z,5.35
2022-11-29T21:53:39.325Z,3.03
2022-11-29T21:56:08.429Z,7.97
2022-11-29T21:58:36.873Z,5.38
2022-11-29T22:01:13.975Z,6.80
2022-11-29T22:03:42.070Z,3.75
2022-11-29T22:06:27.645Z,4.93
2022-11-29T22:08:54.132Z,6.88
2022-11-29T22:11:40.119Z,7.05
2022-11-29T22:14:15.481Z,3.33
2022-11-29T22:16:54.604Z,3.05
2022-11-29T22:19:36.076Z,7.40
2022-11-29T22:22:05.320Z,5.82
2022-11-29T22:24:34.483Z,8.73
2022-11-29T22:27:01.828Z,7.68
2022-11-29T22:29:28.956Z,5.32
2022-11-29T22:31:56.692Z,4.28
2022-11-29T22:34:25.140Z,4.03
2022-11-29T22:36:52.202Z,4.82
2022-11-29T22:39:18.809Z,4.32
2022-11-29T22:41:52.226Z,5.90
2022-11-29T22:44:20.654Z,5.22
2022-11-29T22:46:47.222Z,5.20
2022-11-29T22:49:13.786Z,3.13
2022-11-29T22:51:40.352Z,5.47
2022-11-29T22:54:10.300Z,5.78
2022-11-29T22:56:39.513Z,5.30
2022-11-29T22:59:06.190Z,2.40
2022-11-29T23:01:36.816Z,4.85
2022-11-29T23:04:07.030Z,2.22
2022-11-29T23:06:39.977Z,4.93
2022-11-29T23:09:10.639Z,3.42
2022-11-29T23:11:37.696Z,5.40
2022-11-29T23:14:04.435Z,2.45
2022-11-29T23:16:31.135Z,3.72
2022-11-29T23:18:58.711Z,3.10
2022-11-29T23:21:28.619Z,5.75
2022-11-29T23:23:56.766Z,3.10
2022-11-29T23:26:30.345Z,3.83
2022-11-29T23:28:58.068Z,7.60
2022-11-29T23:31:24.767Z,5.30
2022-11-29T23:33:51.681Z,5.25
2022-11-29T23:36:18.835Z,4.00
2022-11-29T23:38:47.479Z,5.00
2022-11-29T23:41:13.984Z,7.30
2022-11-29T23:43:41.759Z,2.90
2022-11-29T23:46:12.063Z,5.60
2022-11-29T23:48:38.899Z,2.65
2022-11-29T23:51:06.131Z,3.67
2022-11-29T23:53:32.868Z,2.95
2022-11-29T23:56:01.839Z,3.65
2022-11-29T23:58:30.344Z,4.93
